createdAt,value
2018-02-17T00:02:02.904Z,6.22
2018-02-17T00:04:29.098Z,7.70
2018-02-17T00:06:55.300Z,6.85
2018-02-17T00:09:22.208Z,6.60
2018-02-17T00:11:48.385Z,7.20
2018-02-17T00:14:15.325Z,6.75
2018-02-17T00:16:41.502Z,6.65
2018-02-17T00:19:07.689Z,6.85
2018-02-17T00:21:34.000Z,6.03
2018-02-17T00:24:00.303Z,6.82
2018-02-17T00:26:27.196Z,6.93
2018-02-17T00:29:00.508Z,7.80
2018-02-17T00:31:26.669Z,7.00
2018-02-17T00:33:53.594Z,7.75
2018-02-17T00:36:19.916Z,8.15
2018-02-17T00:38:46.107Z,6.90
2018-02-17T00:41:12.988Z,9.02
2018-02-17T00:43:39.540Z,7.35
2018-02-17T00:46:05.709Z,7.18
2018-02-17T00:48:31.869Z,6.72
2018-02-17T00:50:58.781Z,8.50
2018-02-17T00:53:24.939Z,8.40
2018-02-17T00:55:51.269Z,7.35
2018-02-17T00:58:17.448Z,8.43
2018-02-17T01:00:43.631Z,7.05
2018-02-17T01:03:09.825Z,7.00
2018-02-17T01:05:35.988Z,8.73
2018-02-17T01:08:02.172Z,7.82
2018-02-17T01:10:29.114Z,8.82
2018-02-17T01:12:56.036Z,8.75
2018-02-17T01:15:23.704Z,8.20
2018-02-17T01:17:49.884Z,7.87
2018-02-17T01:20:16.056Z,8.40
2018-02-17T01:22:42.216Z,8.57
2018-02-17T01:25:08.656Z,10.30
2018-02-17T01:27:34.822Z,9.45
2018-02-17T01:30:01.730Z,8.13
2018-02-17T01:32:27.893Z,8.82
2018-02-17T01:34:54.036Z,9.20
2018-02-17T01:37:20.932Z,9.13
2018-02-17T01:39:47.145Z,9.30
2018-02-17T01:42:13.356Z,8.85
2018-02-17T01:44:40.267Z,9.90
2018-02-17T01:47:06.472Z,9.93
2018-02-17T01:49:32.658Z,9.00
2018-02-17T01:51:59.563Z,10.00
2018-02-17T01:54:25.776Z,11.15
2018-02-17T01:56:51.931Z,11.10
2018-02-17T01:59:18.130Z,10.07
2018-02-17T02:01:45.064Z,9.55
2018-02-17T02:04:11.237Z,9.75
2018-02-17T02:06:37.432Z,9.07
2018-02-17T02:09:03.611Z,9.35
2018-02-17T02:11:29.794Z,9.63
2018-02-17T02:13:56.084Z,9.88
2018-02-17T02:16:22.248Z,9.32
2018-02-17T02:18:48.396Z,10.35
2018-02-17T02:21:14.581Z,9.50
2018-02-17T02:23:40.752Z,10.88
2018-02-17T02:26:07.184Z,9.68
2018-02-17T02:28:33.339Z,9.73
2018-02-17T02:30:59.549Z,8.25
2018-02-17T02:33:26.380Z,9.07
2018-02-17T02:35:52.935Z,10.35
2018-02-17T02:38:19.084Z,9.43
2018-02-17T02:40:45.252Z,10.40
2018-02-17T02:43:11.657Z,10.38
2018-02-17T02:45:37.831Z,9.80
2018-02-17T02:48:04.719Z,10.25
2018-02-17T02:50:30.887Z,11.27
2018-02-17T02:52:57.228Z,9.32
2018-02-17T02:55:23.716Z,11.85
2018-02-17T02:57:49.865Z,9.73
2018-02-17T03:00:16.065Z,9.75
2018-02-17T03:02:42.980Z,10.63
2018-02-17T03:05:09.901Z,11.18
2018-02-17T03:07:36.068Z,10.98
2018-02-17T03:10:02.209Z,11.75
2018-02-17T03:12:29.156Z,10.50
2018-02-17T03:14:55.356Z,10.13
2018-02-17T03:17:21.507Z,9.70
2018-02-17T03:19:47.669Z,10.00
2018-02-17T03:22:14.595Z,9.35
2018-02-17T03:24:40.782Z,9.52
2018-02-17T03:27:07.144Z,10.25
2018-02-17T03:29:33.297Z,10.32
2018-02-17T03:32:00.231Z,10.15
2018-02-17T03:34:26.389Z,10.20
2018-02-17T03:36:52.524Z,11.70
2018-02-17T03:39:19.429Z,10.27
2018-02-17T03:41:45.604Z,10.55
2018-02-17T03:44:12.523Z,9.43
2018-02-17T03:46:38.684Z,10.90
2018-02-17T03:49:05.586Z,11.73
2018-02-17T03:51:31.788Z,10.43
2018-02-17T03:53:57.945Z,10.50
2018-02-17T03:56:24.120Z,10.73
2018-02-17T03:58:50.268Z,11.27
2018-02-17T04:01:16.424Z,10.15
2018-02-17T04:03:42.899Z,11.07
2018-02-17T04:06:09.900Z,12.18
2018-02-17T04:08:36.822Z,11.20
2018-02-17T04:11:03.013Z,11.25
2018-02-17T04:13:29.198Z,10.75
2018-02-17T04:15:55.344Z,12.75
2018-02-17T04:18:22.451Z,12.65
2018-02-17T04:20:48.604Z,10.13
2018-02-17T04:23:14.780Z,11.00
2018-02-17T04:25:40.963Z,11.77
2018-02-17T04:28:07.284Z,10.32
2018-02-17T04:30:33.445Z,11.30
2018-02-17T04:33:00.571Z,11.93
2018-02-17T04:35:26.774Z,12.35
2018-02-17T04:37:52.960Z,12.88
2018-02-17T04:40:24.236Z,12.40
2018-02-17T04:42:56.359Z,11.63
2018-02-17T04:45:22.532Z,11.05
2018-02-17T04:48:04.687Z,11.15
2018-02-17T04:53:46.413Z,12.10
2018-02-17T04:59:26.824Z,11.73
2018-02-17T05:01:59.206Z,11.80
2018-02-17T05:04:25.375Z,12.07
2018-02-17T05:06:53.384Z,12.43
2018-02-17T05:09:20.298Z,13.30
2018-02-17T05:11:46.470Z,14.23
2018-02-17T05:14:19.305Z,13.35
2018-02-17T05:16:53.375Z,13.02
2018-02-17T05:19:29.528Z,13.10
2018-02-17T05:21:58.607Z,12.07
2018-02-17T05:24:24.756Z,12.23
2018-02-17T05:29:55.057Z,12.73
2018-02-17T05:32:27.813Z,13.02
2018-02-17T05:37:58.010Z,13.23
2018-02-17T05:40:24.127Z,11.95
2018-02-17T05:42:51.827Z,12.65
2018-02-17T05:45:18.032Z,13.88
2018-02-17T05:47:50.924Z,12.73
2018-02-17T05:50:21.008Z,13.88
2018-02-17T05:52:47.166Z,12.00
2018-02-17T05:55:14.071Z,11.75
2018-02-17T05:57:47.200Z,13.50
2018-02-17T06:00:14.133Z,13.32
2018-02-17T06:02:40.296Z,12.73
2018-02-17T06:05:07.210Z,12.45
2018-02-17T06:07:35.088Z,12.88
2018-02-17T06:10:01.484Z,14.25
2018-02-17T06:12:27.667Z,12.27
2018-02-17T06:14:53.868Z,11.98
2018-02-17T06:17:20.188Z,12.43
2018-02-17T06:19:46.353Z,12.48
2018-02-17T06:22:12.548Z,12.18
2018-02-17T06:24:38.728Z,12.50
2018-02-17T06:27:05.663Z,12.60
2018-02-17T06:29:31.821Z,11.98
2018-02-17T06:31:58.748Z,12.05
2018-02-17T06:34:25.203Z,12.85
2018-02-17T06:36:52.145Z,13.07
2018-02-17T06:39:18.303Z,13.48
2018-02-17T06:41:45.206Z,15.02
2018-02-17T06:44:11.385Z,12.88
2018-02-17T06:46:38.288Z,14.45
2018-02-17T06:49:04.615Z,12.80
2018-02-17T06:51:30.812Z,13.15
2018-02-17T06:53:56.985Z,13.57
2018-02-17T06:56:23.450Z,13.85
2018-02-17T06:58:49.622Z,13.88
2018-02-17T07:01:16.510Z,13.50
2018-02-17T07:03:42.697Z,13.10
2018-02-17T07:06:09.591Z,13.82
2018-02-17T07:08:35.753Z,13.90
2018-02-17T07:11:01.913Z,13.70
2018-02-17T07:13:28.161Z,14.90
2018-02-17T07:15:54.352Z,13.85
2018-02-17T07:18:20.535Z,13.43
2018-02-17T07:20:46.736Z,13.73
2018-02-17T07:23:13.705Z,13.00
2018-02-17T07:25:40.632Z,13.75
2018-02-17T07:28:07.188Z,11.93
2018-02-17T07:30:33.404Z,14.30
2018-02-17T07:33:00.336Z,12.70
2018-02-17T07:35:26.555Z,13.48
2018-02-17T07:37:52.740Z,15.27
2018-02-17T07:40:19.005Z,14.98
2018-02-17T07:42:45.916Z,13.80
2018-02-17T07:45:12.092Z,13.30
2018-02-17T07:47:38.568Z,13.55
2018-02-17T07:50:04.724Z,15.55
2018-02-17T07:52:31.129Z,13.85
2018-02-17T07:54:57.283Z,14.30
2018-02-17T07:57:23.452Z,13.82
2018-02-17T07:59:49.614Z,13.02
2018-02-17T08:02:15.781Z,13.15
2018-02-17T08:04:41.956Z,12.48
2018-02-17T08:07:08.135Z,13.05
2018-02-17T08:09:34.281Z,13.40
2018-02-17T08:12:01.192Z,12.50
2018-02-17T08:14:27.361Z,12.82
2018-02-17T08:16:53.883Z,14.32
2018-02-17T08:19:20.041Z,13.25
2018-02-17T08:21:46.212Z,13.48
2018-02-17T08:24:12.409Z,12.65
2018-02-17T08:26:38.576Z,11.90
2018-02-17T08:29:04.807Z,13.00
2018-02-17T08:31:30.973Z,12.25
2018-02-17T08:33:57.318Z,12.70
2018-02-17T08:36:23.497Z,12.20
2018-02-17T08:38:50.400Z,11.98
2018-02-17T08:41:16.565Z,11.75
2018-02-17T08:43:43.464Z,11.55
2018-02-17T08:46:09.842Z,11.15
2018-02-17T08:48:36.012Z,11.50
2018-02-17T08:51:02.912Z,11.00
2018-02-17T08:53:29.080Z,11.37
2018-02-17T08:55:55.228Z,12.07
2018-02-17T08:58:21.430Z,9.93
2018-02-17T09:00:47.605Z,10.80
2018-02-17T09:03:13.771Z,9.67
2018-02-17T09:05:39.920Z,8.70
2018-02-17T09:08:06.240Z,8.47
2018-02-17T09:10:44.884Z,9.63
2018-02-17T09:13:11.816Z,8.80
2018-02-17T09:15:37.976Z,7.10
2018-02-17T09:18:04.136Z,9.63
2018-02-17T09:20:31.024Z,8.70
2018-02-17T09:22:58.681Z,6.90
2018-02-17T09:25:24.836Z,7.17
2018-02-17T09:27:51.034Z,6.40
2018-02-17T09:30:17.203Z,6.47
2018-02-17T09:32:43.359Z,5.77
2018-02-17T09:35:09.540Z,6.10
2018-02-17T09:37:35.695Z,5.90
2018-02-17T09:40:01.845Z,6.03
2018-02-17T09:42:28.016Z,6.77
2018-02-17T09:44:54.904Z,6.73
2018-02-17T09:47:21.122Z,6.00
2018-02-17T09:49:47.336Z,6.37
2018-02-17T09:52:13.496Z,6.50
2018-02-17T09:54:39.656Z,6.10
2018-02-17T09:57:05.840Z,5.13
2018-02-17T09:59:32.016Z,6.10
2018-02-17T10:01:58.431Z,5.60
2018-02-17T10:04:24.585Z,5.27
2018-02-17T10:06:50.746Z,5.63
2018-02-17T10:09:17.664Z,5.57
2018-02-17T10:11:43.800Z,5.37
2018-02-17T10:14:09.981Z,5.63
2018-02-17T10:16:36.884Z,5.57
2018-02-17T10:19:03.834Z,5.80
2018-02-17T10:21:30.008Z,5.17
2018-02-17T10:23:57.108Z,5.93
2018-02-17T10:26:23.263Z,6.20
2018-02-17T10:28:50.209Z,6.17
2018-02-17T10:31:17.264Z,4.90
2018-02-17T10:33:43.409Z,5.03
2018-02-17T10:36:09.540Z,5.10
2018-02-17T10:38:35.680Z,5.53
2018-02-17T10:41:02.629Z,5.13
2018-02-17T10:43:28.785Z,5.23
2018-02-17T10:45:55.677Z,5.20
2018-02-17T10:48:21.845Z,4.20
2018-02-17T10:50:48.001Z,4.20
2018-02-17T10:53:14.896Z,4.70
2018-02-17T10:55:41.100Z,4.90
2018-02-17T10:58:07.246Z,4.20
2018-02-17T11:00:33.395Z,3.30
2018-02-17T11:02:59.927Z,4.10
2018-02-17T11:05:26.090Z,5.13
2018-02-17T11:07:52.229Z,4.70
2018-02-17T11:10:18.419Z,4.57
2018-02-17T11:12:44.564Z,5.40
2018-02-17T11:15:10.716Z,5.40
2018-02-17T11:17:36.889Z,4.87
2018-02-17T11:20:03.046Z,5.83
2018-02-17T11:22:29.203Z,4.43
2018-02-17T11:24:55.372Z,3.20
2018-02-17T11:27:21.900Z,4.80
2018-02-17T11:29:48.251Z,3.43
2018-02-17T11:32:14.752Z,3.13
2018-02-17T11:34:41.191Z,2.73
2018-02-17T11:37:07.356Z,3.17
2018-02-17T11:39:33.496Z,2.97
2018-02-17T11:41:59.671Z,3.30
2018-02-17T11:44:25.811Z,2.43
2018-02-17T11:46:51.986Z,2.63
2018-02-17T11:49:18.180Z,2.27
2018-02-17T11:51:44.339Z,2.50
2018-02-17T11:54:10.533Z,3.20
2018-02-17T11:56:37.092Z,3.13
2018-02-17T11:59:03.240Z,2.43
2018-02-17T12:01:29.396Z,2.70
2018-02-17T12:03:55.597Z,3.00
2018-02-17T12:06:21.776Z,3.67
2018-02-17T12:08:47.914Z,2.50
2018-02-17T12:11:14.834Z,2.80
2018-02-17T12:13:40.984Z,2.77
2018-02-17T12:16:07.896Z,3.10
2018-02-17T12:18:34.083Z,3.50
2018-02-17T12:21:00.234Z,2.60
2018-02-17T12:23:26.391Z,3.40
2018-02-17T12:25:52.584Z,2.60
2018-02-17T12:28:18.760Z,3.17
2018-02-17T12:30:45.303Z,2.50
2018-02-17T12:33:11.853Z,1.80
2018-02-17T12:35:38.053Z,1.40
2018-02-17T12:38:04.512Z,2.23
2018-02-17T12:40:30.659Z,2.80
2018-02-17T12:42:56.807Z,3.07
2018-02-17T12:45:22.980Z,3.77
2018-02-17T12:47:49.958Z,3.43
2018-02-17T12:50:16.104Z,3.37
2018-02-17T12:52:42.552Z,3.70
2018-02-17T12:55:10.893Z,3.43
2018-02-17T12:57:39.199Z,3.10
2018-02-17T13:00:06.781Z,3.30
2018-02-17T13:02:32.920Z,3.00
2018-02-17T13:04:59.090Z,2.90
2018-02-17T13:07:26.012Z,2.80
2018-02-17T13:09:52.187Z,2.77
2018-02-17T13:12:18.392Z,2.60
2018-02-17T13:14:44.544Z,2.23
2018-02-17T13:17:11.432Z,2.50
2018-02-17T13:19:37.775Z,2.10
2018-02-17T13:22:03.927Z,2.30
2018-02-17T13:24:30.071Z,2.63
2018-02-17T13:26:56.276Z,2.83
2018-02-17T13:29:22.643Z,5.70
2018-02-17T13:31:49.551Z,7.30
2018-02-17T13:34:16.100Z,8.77
2018-02-17T13:36:42.243Z,10.73
2018-02-17T13:39:08.387Z,11.40
2018-02-17T13:41:42.393Z,10.37
2018-02-17T13:44:08.568Z,9.03
2018-02-17T13:46:35.475Z,10.20
2018-02-17T13:49:01.678Z,9.83
2018-02-17T13:51:27.906Z,9.47
2018-02-17T13:53:54.061Z,9.23
2018-02-17T13:56:20.616Z,11.07
2018-02-17T13:58:46.793Z,7.77
2018-02-17T14:01:13.008Z,7.40
2018-02-17T14:03:39.192Z,9.07
2018-02-17T14:06:05.332Z,7.47
2018-02-17T14:08:31.500Z,5.63
2018-02-17T14:10:58.212Z,8.13
2018-02-17T14:13:24.388Z,5.10
2018-02-17T14:15:51.324Z,5.07
2018-02-17T14:18:17.492Z,4.53
2018-02-17T14:20:44.377Z,4.07
2018-02-17T14:23:10.536Z,3.83
2018-02-17T14:25:36.921Z,3.80
2018-02-17T14:28:03.924Z,4.97
2018-02-17T14:30:30.364Z,4.23
2018-02-17T14:32:56.516Z,5.80
2018-02-17T14:35:22.676Z,6.53
2018-02-17T14:37:49.573Z,6.43
2018-02-17T14:40:15.736Z,5.80
2018-02-17T14:42:41.890Z,6.50
2018-02-17T14:45:08.769Z,6.93
2018-02-17T14:47:34.924Z,5.80
2018-02-17T14:50:01.104Z,5.50
2018-02-17T14:52:28.003Z,6.03
2018-02-17T14:54:54.157Z,5.63
2018-02-17T14:57:20.309Z,5.37
2018-02-17T14:59:47.212Z,4.90
2018-02-17T15:02:13.395Z,5.50
2018-02-17T15:04:40.352Z,6.07
2018-02-17T15:07:07.263Z,5.47
2018-02-17T15:09:33.418Z,5.07
2018-02-17T15:11:59.645Z,6.20
2018-02-17T15:14:25.823Z,7.17
2018-02-17T15:16:52.002Z,6.07
2018-02-17T15:19:18.175Z,6.40
2018-02-17T15:21:44.346Z,4.83
2018-02-17T15:24:10.508Z,5.60
2018-02-17T15:26:36.652Z,4.97
2018-02-17T15:29:03.581Z,4.90
2018-02-17T15:31:30.017Z,4.43
2018-02-17T15:33:56.184Z,4.50
2018-02-17T15:36:23.103Z,4.93
2018-02-17T15:38:49.564Z,4.00
2018-02-17T15:41:15.733Z,4.57
2018-02-17T15:43:41.890Z,5.20
2018-02-17T15:46:08.320Z,5.07
2018-02-17T15:48:34.500Z,4.30
2018-02-17T15:51:00.711Z,4.27
2018-02-17T15:53:26.874Z,4.23
2018-02-17T15:55:53.368Z,4.63
2018-02-17T15:58:19.581Z,4.23
2018-02-17T16:00:46.548Z,3.67
2018-02-17T16:03:12.724Z,4.23
2018-02-17T16:05:38.986Z,4.70
2018-02-17T16:08:05.883Z,3.70
2018-02-17T16:10:32.299Z,2.90
2018-02-17T16:12:58.465Z,3.87
2018-02-17T16:15:24.608Z,4.00
2018-02-17T16:17:50.816Z,3.77
2018-02-17T16:20:16.969Z,3.90
2018-02-17T16:22:43.136Z,2.47
2018-02-17T16:25:10.228Z,2.70
2018-02-17T16:27:36.412Z,2.63
2018-02-17T16:30:02.592Z,2.27
2018-02-17T16:32:29.427Z,3.60
2018-02-17T16:34:55.572Z,4.03
2018-02-17T16:37:21.740Z,2.80
2018-02-17T16:39:47.912Z,3.77
2018-02-17T16:42:14.094Z,3.83
2018-02-17T16:44:40.244Z,3.40
2018-02-17T16:47:07.913Z,4.23
2018-02-17T16:49:34.077Z,3.23
2018-02-17T16:55:03.157Z,5.10
2018-02-17T16:57:30.095Z,5.30
2018-02-17T16:59:56.239Z,4.80
2018-02-17T17:02:22.416Z,5.20
2018-02-17T17:04:48.585Z,6.23
2018-02-17T17:07:14.736Z,6.93
2018-02-17T17:09:40.941Z,6.00
2018-02-17T17:12:07.100Z,4.90
2018-02-17T17:14:33.272Z,6.50
2018-02-17T17:16:59.428Z,5.60
2018-02-17T17:19:25.571Z,5.77
2018-02-17T17:21:51.727Z,6.13
2018-02-17T17:24:17.908Z,7.73
2018-02-17T17:26:44.052Z,6.90
2018-02-17T17:29:10.205Z,6.67
2018-02-17T17:31:36.524Z,6.70
2018-02-17T17:34:03.097Z,6.00
2018-02-17T17:36:29.249Z,6.77
2018-02-17T17:38:56.315Z,8.27
2018-02-17T17:41:23.217Z,8.37
2018-02-17T17:43:49.372Z,8.90
2018-02-17T17:46:15.584Z,9.90
2018-02-17T17:48:41.749Z,9.23
2018-02-17T17:51:08.037Z,7.43
2018-02-17T17:53:34.240Z,7.13
2018-02-17T17:56:01.176Z,7.50
2018-02-17T17:58:27.396Z,6.00
2018-02-17T18:00:53.648Z,4.70
2018-02-17T18:03:20.101Z,5.10
2018-02-17T18:05:46.296Z,4.35
2018-02-17T18:08:13.259Z,4.70
2018-02-17T18:10:39.433Z,4.33
2018-02-17T18:13:05.603Z,4.43
2018-02-17T18:15:31.784Z,5.22
2018-02-17T18:17:57.955Z,4.43
2018-02-17T18:20:24.855Z,4.63
2018-02-17T18:22:51.800Z,4.90
2018-02-17T18:25:18.708Z,3.80
2018-02-17T18:27:44.893Z,3.65
2018-02-17T18:30:11.840Z,4.50
2018-02-17T18:32:38.756Z,4.53
2018-02-17T18:35:04.916Z,4.47
2018-02-17T18:37:33.249Z,3.23
2018-02-17T18:40:01.915Z,3.92
2018-02-17T18:42:30.573Z,4.30
2018-02-17T18:44:59.227Z,3.92
2018-02-17T18:47:27.848Z,3.67
2018-02-17T18:49:57.147Z,5.03
2018-02-17T18:52:23.820Z,4.20
2018-02-17T18:54:50.017Z,4.60
2018-02-17T18:57:16.195Z,4.45
2018-02-17T18:59:42.390Z,4.90
2018-02-17T19:02:08.567Z,4.93
2018-02-17T19:04:34.786Z,4.97
2018-02-17T19:07:01.232Z,4.35
2018-02-17T19:09:27.452Z,5.12
2018-02-17T19:11:54.397Z,5.75
2018-02-17T19:14:21.339Z,6.82
2018-02-17T19:16:47.546Z,7.57
2018-02-17T19:19:13.768Z,8.27
2018-02-17T19:21:39.923Z,8.15
2018-02-17T19:24:06.084Z,7.75
2018-02-17T19:26:33.027Z,9.23
2018-02-17T19:28:59.184Z,8.85
2018-02-17T19:31:26.092Z,9.75
2018-02-17T19:33:53.193Z,10.38
2018-02-17T19:36:19.354Z,11.02
2018-02-17T19:38:45.496Z,9.35
2018-02-17T19:41:11.700Z,9.23
2018-02-17T19:43:38.079Z,8.98
2018-02-17T19:46:04.249Z,7.95
2018-02-17T19:48:31.366Z,8.82
2018-02-17T19:50:57.501Z,8.50
2018-02-17T19:53:23.682Z,8.77
2018-02-17T19:55:50.594Z,7.60
2018-02-17T19:58:18.642Z,7.70
2018-02-17T20:00:46.712Z,7.07
2018-02-17T20:03:14.821Z,6.40
2018-02-17T20:05:40.981Z,7.03
2018-02-17T20:08:07.168Z,6.20
2018-02-17T20:10:33.315Z,6.55
2018-02-17T20:12:59.666Z,10.33
2018-02-17T20:15:25.904Z,11.70
2018-02-17T20:17:52.215Z,11.40
2018-02-17T20:20:18.429Z,10.07
2018-02-17T20:22:44.580Z,10.93
2018-02-17T20:25:10.764Z,10.23
2018-02-17T20:27:37.692Z,12.30
2018-02-17T20:30:04.634Z,9.40
2018-02-17T20:32:30.804Z,12.05
2018-02-17T20:34:57.721Z,13.32
2018-02-17T20:37:24.914Z,14.45
2018-02-17T20:39:51.101Z,16.12
2018-02-17T20:42:18.746Z,16.20
2018-02-17T20:44:44.924Z,12.15
2018-02-17T20:47:11.088Z,13.52
2018-02-17T20:49:38.044Z,12.43
2018-02-17T20:52:04.300Z,12.20
2018-02-17T21:01:01.496Z,10.70
2018-02-17T21:06:44.166Z,12.48
2018-02-17T21:09:10.325Z,15.30
2018-02-17T21:11:36.493Z,13.45
2018-02-17T21:14:04.473Z,17.00
2018-02-17T21:16:30.630Z,16.33
2018-02-17T21:18:57.323Z,16.02
2018-02-17T21:21:24.740Z,12.77
2018-02-17T21:23:50.921Z,11.27
2018-02-17T21:26:17.140Z,11.57
2018-02-17T21:28:43.527Z,11.80
2018-02-17T21:31:09.748Z,13.50
2018-02-17T21:33:35.922Z,12.85
2018-02-17T21:36:02.150Z,11.23
2018-02-17T21:38:28.313Z,13.02
2018-02-17T21:40:54.470Z,14.23
2018-02-17T21:43:20.680Z,13.13
2018-02-17T21:45:47.605Z,11.63
2018-02-17T21:48:13.812Z,11.60
2018-02-17T21:50:40.301Z,11.40
2018-02-17T21:53:06.501Z,12.10
2018-02-17T21:55:32.677Z,10.60
2018-02-17T21:57:59.602Z,11.50
2018-02-17T22:00:25.764Z,10.48
2018-02-17T22:02:52.673Z,12.73
2018-02-17T22:05:18.858Z,12.13
2018-02-17T22:07:45.785Z,14.27
2018-02-17T22:10:12.763Z,15.40
2018-02-17T22:12:39.967Z,15.90
2018-02-17T22:15:06.933Z,17.17
2018-02-17T22:17:33.153Z,16.05
2018-02-17T22:19:59.388Z,11.73
2018-02-17T22:22:25.555Z,11.27
2018-02-17T22:24:51.785Z,12.02
2018-02-17T22:27:17.947Z,13.27
2018-02-17T22:29:44.121Z,15.85
2018-02-17T22:32:10.324Z,16.08
2018-02-17T22:34:36.518Z,12.73
2018-02-17T22:37:02.988Z,12.75
2018-02-17T22:39:29.905Z,11.88
2018-02-17T22:41:56.833Z,12.07
2018-02-17T22:44:23.097Z,11.50
2018-02-17T22:46:49.248Z,12.25
2018-02-17T22:49:16.168Z,12.63
2018-02-17T22:51:42.392Z,11.63
2018-02-17T22:54:08.612Z,11.88
2018-02-17T22:56:34.804Z,11.65
2018-02-17T22:59:00.976Z,13.80
2018-02-17T23:01:27.155Z,12.50
2018-02-17T23:03:53.363Z,12.18
2018-02-17T23:06:19.892Z,13.70
2018-02-17T23:08:46.044Z,13.80
2018-02-17T23:11:12.296Z,13.62
2018-02-17T23:13:38.512Z,12.88
2018-02-17T23:16:04.732Z,12.02
2018-02-17T23:18:31.128Z,12.23
2018-02-17T23:20:58.069Z,12.35
2018-02-17T23:23:24.980Z,12.35
2018-02-17T23:25:51.176Z,13.07
2018-02-17T23:28:17.362Z,12.60
2018-02-17T23:30:44.306Z,13.02
2018-02-17T23:33:10.496Z,12.33
2018-02-17T23:35:36.727Z,12.77
2018-02-17T23:38:02.937Z,14.35
2018-02-17T23:40:30.136Z,11.75
2018-02-17T23:42:56.288Z,12.13
2018-02-17T23:45:23.283Z,12.20
2018-02-17T23:47:49.432Z,13.00
2018-02-17T23:50:15.640Z,12.65
2018-02-17T23:52:42.608Z,12.88
2018-02-17T23:55:08.780Z,10.95
2018-02-17T23:57:34.969Z,11.57
